sensor_id;sensor_type;location;lat;lon;timestamp;temperature;humidity
5394;DHT22;2720;52.396;10.064;2023-06-04T00:00:19;8.50;99.90
5394;DHT22;2720;52.396;10.064;2023-06-04T00:02:47;8.50;99.90
5394;DHT22;2720;52.396;10.064;2023-06-04T00:05:14;8.40;99.90
5394;DHT22;2720;52.396;10.064;2023-06-04T00:07:41;8.40;99.90
5394;DHT22;2720;52.396;10.064;2023-06-04T00:10:09;8.30;99.90
5394;DHT22;2720;52.396;10.064;2023-06-04T00:12:36;8.10;99.90
5394;DHT22;2720;52.396;10.064;2023-06-04T00:15:03;8.10;99.90
5394;DHT22;2720;52.396;10.064;2023-06-04T00:17:31;8.10;99.90
5394;DHT22;2720;52.396;10.064;2023-06-04T00:19:59;8.00;99.90
5394;DHT22;2720;52.396;10.064;2023-06-04T00:22:26;7.90;99.90
5394;DHT22;2720;52.396;10.064;2023-06-04T00:24:53;7.90;99.90
5394;DHT22;2720;52.396;10.064;2023-06-04T00:27:20;7.80;99.90
5394;DHT22;2720;52.396;10.064;2023-06-04T00:29:47;7.80;99.90
5394;DHT22;2720;52.396;10.064;2023-06-04T00:32:14;7.70;99.90
5394;DHT22;2720;52.396;10.064;2023-06-04T00:34:41;7.70;99.90
5394;DHT22;2720;52.396;10.064;2023-06-04T00:37:09;7.70;99.90
5394;DHT22;2720;52.396;10.064;2023-06-04T00:39:36;7.70;99.90
5394;DHT22;2720;52.396;10.064;2023-06-04T00:42:07;7.70;99.90
5394;DHT22;2720;52.396;10.064;2023-06-04T00:44:34;7.70;99.90
5394;DHT22;2720;52.396;10.064;2023-06-04T00:47:02;7.70;99.90
5394;DHT22;2720;52.396;10.064;2023-06-04T00:49:29;7.70;99.90
5394;DHT22;2720;52.396;10.064;2023-06-04T00:51:56;7.60;99.90
5394;DHT22;2720;52.396;10.064;2023-06-04T00:54:24;7.50;99.90
5394;DHT22;2720;52.396;10.064;2023-06-04T00:56:51;7.50;99.90
5394;DHT22;2720;52.396;10.064;2023-06-04T00:59:18;7.50;99.90
5394;DHT22;2720;52.396;10.064;2023-06-04T01:01:49;7.60;99.90
5394;DHT22;2720;52.396;10.064;2023-06-04T01:04:23;7.60;99.90
5394;DHT22;2720;52.396;10.064;2023-06-04T01:06:53;7.60;99.90
5394;DHT22;2720;52.396;10.064;2023-06-04T01:09:24;7.60;99.90
5394;DHT22;2720;52.396;10.064;2023-06-04T01:11:52;7.60;99.90
5394;DHT22;2720;52.396;10.064;2023-06-04T01:14:19;7.50;99.90
5394;DHT22;2720;52.396;10.064;2023-06-04T01:16:49;7.50;99.90
5394;DHT22;2720;52.396;10.064;2023-06-04T01:19:45;7.50;99.90
5394;DHT22;2720;52.396;10.064;2023-06-04T01:22:23;7.60;99.90
5394;DHT22;2720;52.396;10.064;2023-06-04T01:24:56;7.50;99.90
5394;DHT22;2720;52.396;10.064;2023-06-04T01:27:25;7.60;99.90
5394;DHT22;2720;52.396;10.064;2023-06-04T01:29:52;7.70;99.90
5394;DHT22;2720;52.396;10.064;2023-06-04T01:32:22;7.70;99.90
5394;DHT22;2720;52.396;10.064;2023-06-04T01:34:50;7.60;99.90
5394;DHT22;2720;52.396;10.064;2023-06-04T01:37:17;7.50;99.90
5394;DHT22;2720;52.396;10.064;2023-06-04T01:39:44;7.40;99.90
5394;DHT22;2720;52.396;10.064;2023-06-04T01:42:12;7.30;99.90
5394;DHT22;2720;52.396;10.064;2023-06-04T01:44:39;7.20;99.90
5394;DHT22;2720;52.396;10.064;2023-06-04T01:47:06;7.10;99.90
5394;DHT22;2720;52.396;10.064;2023-06-04T01:49:33;7.10;99.90
5394;DHT22;2720;52.396;10.064;2023-06-04T01:52:00;7.00;99.90
5394;DHT22;2720;52.396;10.064;2023-06-04T01:54:27;7.10;99.90
5394;DHT22;2720;52.396;10.064;2023-06-04T01:56:55;7.00;99.90
5394;DHT22;2720;52.396;10.064;2023-06-04T01:59:24;7.00;99.90
5394;DHT22;2720;52.396;10.064;2023-06-04T02:01:51;6.90;99.90
5394;DHT22;2720;52.396;10.064;2023-06-04T02:04:17;6.80;99.90
5394;DHT22;2720;52.396;10.064;2023-06-04T02:06:44;6.80;99.90
5394;DHT22;2720;52.396;10.064;2023-06-04T02:09:11;6.80;99.90
5394;DHT22;2720;52.396;10.064;2023-06-04T02:11:39;6.80;99.90
5394;DHT22;2720;52.396;10.064;2023-06-04T02:14:06;6.70;99.90
5394;DHT22;2720;52.396;10.064;2023-06-04T02:16:34;6.70;99.90
5394;DHT22;2720;52.396;10.064;2023-06-04T02:19:03;6.70;99.90
5394;DHT22;2720;52.396;10.064;2023-06-04T02:21:30;6.70;99.90
5394;DHT22;2720;52.396;10.064;2023-06-04T02:23:57;6.80;99.90
5394;DHT22;2720;52.396;10.064;2023-06-04T02:26:24;6.80;99.90
5394;DHT22;2720;52.396;10.064;2023-06-04T02:28:51;6.80;99.90
5394;DHT22;2720;52.396;10.064;2023-06-04T02:31:18;6.80;99.90
5394;DHT22;2720;52.396;10.064;2023-06-04T02:33:46;6.80;99.90
5394;DHT22;2720;52.396;10.064;2023-06-04T02:36:13;6.70;99.90
5394;DHT22;2720;52.396;10.064;2023-06-04T02:38:43;6.50;99.90
5394;DHT22;2720;52.396;10.064;2023-06-04T02:41:10;6.60;99.90
5394;DHT22;2720;52.396;10.064;2023-06-04T02:43:37;6.60;99.90
5394;DHT22;2720;52.396;10.064;2023-06-04T02:46:03;6.50;99.90
5394;DHT22;2720;52.396;10.064;2023-06-04T02:48:31;6.40;99.90
5394;DHT22;2720;52.396;10.064;2023-06-04T02:51:00;6.50;99.90
5394;DHT22;2720;52.396;10.064;2023-06-04T02:53:27;6.50;99.90
5394;DHT22;2720;52.396;10.064;2023-06-04T02:55:54;6.50;99.90
5394;DHT22;2720;52.396;10.064;2023-06-04T02:58:21;6.50;99.90
5394;DHT22;2720;52.396;10.064;2023-06-04T03:00:52;6.60;99.90
5394;DHT22;2720;52.396;10.064;2023-06-04T03:03:19;6.60;99.90
5394;DHT22;2720;52.396;10.064;2023-06-04T03:05:46;6.60;99.90
5394;DHT22;2720;52.396;10.064;2023-06-04T03:08:15;6.60;99.90
5394;DHT22;2720;52.396;10.064;2023-06-04T03:10:41;6.50;99.90
5394;DHT22;2720;52.396;10.064;2023-06-04T03:13:08;6.50;99.90
5394;DHT22;2720;52.396;10.064;2023-06-04T03:15:35;6.40;99.90
5394;DHT22;2720;52.396;10.064;2023-06-04T03:18:04;6.40;99.90
5394;DHT22;2720;52.396;10.064;2023-06-04T03:20:31;6.30;99.90
5394;DHT22;2720;52.396;10.064;2023-06-04T03:23:03;6.30;99.90
5394;DHT22;2720;52.396;10.064;2023-06-04T03:25:32;6.30;99.90
5394;DHT22;2720;52.396;10.064;2023-06-04T03:27:59;6.20;99.90
5394;DHT22;2720;52.396;10.064;2023-06-04T03:30:25;6.20;99.90
5394;DHT22;2720;52.396;10.064;2023-06-04T03:32:52;6.10;99.90
5394;DHT22;2720;52.396;10.064;2023-06-04T03:35:19;6.10;99.90
5394;DHT22;2720;52.396;10.064;2023-06-04T03:37:46;6.10;99.90
5394;DHT22;2720;52.396;10.064;2023-06-04T03:40:13;6.10;99.90
5394;DHT22;2720;52.396;10.064;2023-06-04T03:42:42;6.10;99.90
5394;DHT22;2720;52.396;10.064;2023-06-04T03:45:09;6.10;99.90
5394;DHT22;2720;52.396;10.064;2023-06-04T03:47:37;6.20;99.90
5394;DHT22;2720;52.396;10.064;2023-06-04T03:50:05;6.20;99.90
5394;DHT22;2720;52.396;10.064;2023-06-04T03:52:32;6.30;99.90
5394;DHT22;2720;52.396;10.064;2023-06-04T03:54:59;6.40;99.90
5394;DHT22;2720;52.396;10.064;2023-06-04T03:57:27;6.50;99.90
5394;DHT22;2720;52.396;10.064;2023-06-04T03:59:55;6.50;99.90
5394;DHT22;2720;52.396;10.064;2023-06-04T04:02:22;6.80;99.90
5394;DHT22;2720;52.396;10.064;2023-06-04T04:04:49;7.50;99.90
5394;DHT22;2720;52.396;10.064;2023-06-04T04:07:16;8.40;99.90
5394;DHT22;2720;52.396;10.064;2023-06-04T04:09:43;9.20;99.90
5394;DHT22;2720;52.396;10.064;2023-06-04T04:12:10;9.60;99.90
5394;DHT22;2720;52.396;10.064;2023-06-04T04:14:37;10.50;99.90
5394;DHT22;2720;52.396;10.064;2023-06-04T04:17:05;9.30;99.90
5394;DHT22;2720;52.396;10.064;2023-06-04T04:19:32;9.10;99.90
5394;DHT22;2720;52.396;10.064;2023-06-04T04:22:00;8.90;99.90
5394;DHT22;2720;52.396;10.064;2023-06-04T04:24:27;8.70;99.90
5394;DHT22;2720;52.396;10.064;2023-06-04T04:26:55;8.60;99.90
5394;DHT22;2720;52.396;10.064;2023-06-04T04:29:22;8.50;99.90
5394;DHT22;2720;52.396;10.064;2023-06-04T04:31:50;8.50;99.90
5394;DHT22;2720;52.396;10.064;2023-06-04T04:34:18;8.40;99.90
5394;DHT22;2720;52.396;10.064;2023-06-04T04:36:47;8.40;99.90
5394;DHT22;2720;52.396;10.064;2023-06-04T04:39:17;8.40;99.90
5394;DHT22;2720;52.396;10.064;2023-06-04T04:41:44;8.20;99.90
5394;DHT22;2720;52.396;10.064;2023-06-04T04:44:11;8.20;99.90
5394;DHT22;2720;52.396;10.064;2023-06-04T04:46:38;8.20;99.90
5394;DHT22;2720;52.396;10.064;2023-06-04T04:49:05;8.20;99.90
5394;DHT22;2720;52.396;10.064;2023-06-04T04:51:34;8.20;99.90
5394;DHT22;2720;52.396;10.064;2023-06-04T04:54:01;8.30;99.90
5394;DHT22;2720;52.396;10.064;2023-06-04T04:56:28;8.40;99.90
5394;DHT22;2720;52.396;10.064;2023-06-04T04:58:55;8.40;99.90
5394;DHT22;2720;52.396;10.064;2023-06-04T05:01:22;8.50;99.90
5394;DHT22;2720;52.396;10.064;2023-06-04T05:03:51;8.60;99.90
5394;DHT22;2720;52.396;10.064;2023-06-04T05:06:18;8.70;99.90
5394;DHT22;2720;52.396;10.064;2023-06-04T05:08:47;8.90;99.90
5394;DHT22;2720;52.396;10.064;2023-06-04T05:11:15;8.80;99.90
5394;DHT22;2720;52.396;10.064;2023-06-04T05:13:42;8.90;99.90
5394;DHT22;2720;52.396;10.064;2023-06-04T05:16:08;9.10;99.90
5394;DHT22;2720;52.396;10.064;2023-06-04T05:18:37;9.30;99.90
5394;DHT22;2720;52.396;10.064;2023-06-04T05:21:06;9.30;99.90
5394;DHT22;2720;52.396;10.064;2023-06-04T05:23:33;9.40;99.90
5394;DHT22;2720;52.396;10.064;2023-06-04T05:26:04;9.60;99.90
5394;DHT22;2720;52.396;10.064;2023-06-04T05:28:31;9.70;99.90
5394;DHT22;2720;52.396;10.064;2023-06-04T05:30:59;12.00;99.90
5394;DHT22;2720;52.396;10.064;2023-06-04T05:33:26;9.80;99.90
5394;DHT22;2720;52.396;10.064;2023-06-04T05:35:53;9.90;99.90
5394;DHT22;2720;52.396;10.064;2023-06-04T05:38:23;9.90;99.90
5394;DHT22;2720;52.396;10.064;2023-06-04T05:40:51;10.00;99.90
5394;DHT22;2720;52.396;10.064;2023-06-04T05:43:20;10.10;99.90
5394;DHT22;2720;52.396;10.064;2023-06-04T05:45:47;10.10;99.90
5394;DHT22;2720;52.396;10.064;2023-06-04T05:48:14;10.10;99.90
5394;DHT22;2720;52.396;10.064;2023-06-04T05:50:41;10.40;99.90
5394;DHT22;2720;52.396;10.064;2023-06-04T05:53:08;10.50;99.90
5394;DHT22;2720;52.396;10.064;2023-06-04T05:55:36;10.60;99.90
5394;DHT22;2720;52.396;10.064;2023-06-04T05:58:03;10.70;99.90
5394;DHT22;2720;52.396;10.064;2023-06-04T06:00:31;10.80;99.90
5394;DHT22;2720;52.396;10.064;2023-06-04T06:02:58;11.00;99.90
5394;DHT22;2720;52.396;10.064;2023-06-04T06:05:25;11.10;99.90
5394;DHT22;2720;52.396;10.064;2023-06-04T06:07:52;11.20;99.90
5394;DHT22;2720;52.396;10.064;2023-06-04T06:10:19;11.30;99.90
5394;DHT22;2720;52.396;10.064;2023-06-04T06:12:46;11.40;99.90
5394;DHT22;2720;52.396;10.064;2023-06-04T06:15:13;11.50;99.90
5394;DHT22;2720;52.396;10.064;2023-06-04T06:17:42;11.50;99.90
5394;DHT22;2720;52.396;10.064;2023-06-04T06:20:09;11.60;99.90
5394;DHT22;2720;52.396;10.064;2023-06-04T06:22:37;11.70;99.90
5394;DHT22;2720;52.396;10.064;2023-06-04T06:25:04;11.70;99.90
5394;DHT22;2720;52.396;10.064;2023-06-04T06:27:32;11.80;99.90
5394;DHT22;2720;52.396;10.064;2023-06-04T06:29:59;11.90;99.90
5394;DHT22;2720;52.396;10.064;2023-06-04T06:32:26;12.00;99.90
5394;DHT22;2720;52.396;10.064;2023-06-04T06:34:55;12.20;99.90
5394;DHT22;2720;52.396;10.064;2023-06-04T06:37:22;12.30;99.90
5394;DHT22;2720;52.396;10.064;2023-06-04T06:39:49;12.40;99.90
5394;DHT22;2720;52.396;10.064;2023-06-04T06:42:16;12.50;99.90
5394;DHT22;2720;52.396;10.064;2023-06-04T06:44:44;12.60;99.90
5394;DHT22;2720;52.396;10.064;2023-06-04T06:47:11;12.80;99.90
5394;DHT22;2720;52.396;10.064;2023-06-04T06:49:39;12.90;99.90
5394;DHT22;2720;52.396;10.064;2023-06-04T06:52:07;13.10;99.90
5394;DHT22;2720;52.396;10.064;2023-06-04T06:54:34;13.20;99.90
5394;DHT22;2720;52.396;10.064;2023-06-04T06:57:01;13.30;99.90
5394;DHT22;2720;52.396;10.064;2023-06-04T06:59:34;13.30;99.90
5394;DHT22;2720;52.396;10.064;2023-06-04T07:02:01;13.30;99.90
5394;DHT22;2720;52.396;10.064;2023-06-04T07:04:28;13.50;99.90
5394;DHT22;2720;52.396;10.064;2023-06-04T07:06:55;13.70;99.90
5394;DHT22;2720;52.396;10.064;2023-06-04T07:09:23;13.80;99.90
5394;DHT22;2720;52.396;10.064;2023-06-04T07:11:50;13.90;99.90
5394;DHT22;2720;52.396;10.064;2023-06-04T07:14:17;14.00;99.90
5394;DHT22;2720;52.396;10.064;2023-06-04T07:16:44;14.10;99.90
5394;DHT22;2720;52.396;10.064;2023-06-04T07:19:11;14.30;99.90
5394;DHT22;2720;52.396;10.064;2023-06-04T07:21:38;14.40;99.90
5394;DHT22;2720;52.396;10.064;2023-06-04T07:24:05;14.50;99.90
5394;DHT22;2720;52.396;10.064;2023-06-04T07:26:33;14.60;99.90
5394;DHT22;2720;52.396;10.064;2023-06-04T07:29:00;14.80;99.90
5394;DHT22;2720;52.396;10.064;2023-06-04T07:31:27;15.00;99.90
5394;DHT22;2720;52.396;10.064;2023-06-04T07:33:54;15.10;99.90
5394;DHT22;2720;52.396;10.064;2023-06-04T07:36:21;15.20;99.90
5394;DHT22;2720;52.396;10.064;2023-06-04T07:38:48;15.50;99.90
5394;DHT22;2720;52.396;10.064;2023-06-04T07:41:15;15.50;99.90
5394;DHT22;2720;52.396;10.064;2023-06-04T07:43:44;15.60;99.90
5394;DHT22;2720;52.396;10.064;2023-06-04T07:46:11;15.70;99.90
5394;DHT22;2720;52.396;10.064;2023-06-04T07:48:38;15.80;99.90
5394;DHT22;2720;52.396;10.064;2023-06-04T07:51:05;15.90;99.90
5394;DHT22;2720;52.396;10.064;2023-06-04T07:53:32;15.90;99.90
5394;DHT22;2720;52.396;10.064;2023-06-04T07:55:59;16.00;99.90
5394;DHT22;2720;52.396;10.064;2023-06-04T07:58:26;16.00;99.90
5394;DHT22;2720;52.396;10.064;2023-06-04T08:00:54;16.20;99.90
5394;DHT22;2720;52.396;10.064;2023-06-04T08:03:21;16.20;99.90
5394;DHT22;2720;52.396;10.064;2023-06-04T08:05:49;16.30;99.90
5394;DHT22;2720;52.396;10.064;2023-06-04T08:08:16;16.40;99.90
5394;DHT22;2720;52.396;10.064;2023-06-04T08:10:43;16.50;99.90
5394;DHT22;2720;52.396;10.064;2023-06-04T08:13:10;16.50;99.90
5394;DHT22;2720;52.396;10.064;2023-06-04T08:15:37;16.60;99.90
5394;DHT22;2720;52.396;10.064;2023-06-04T08:18:05;16.70;99.90
5394;DHT22;2720;52.396;10.064;2023-06-04T08:20:32;16.80;99.90
5394;DHT22;2720;52.396;10.064;2023-06-04T08:22:59;17.00;99.90
5394;DHT22;2720;52.396;10.064;2023-06-04T08:25:26;17.30;99.90
5394;DHT22;2720;52.396;10.064;2023-06-04T08:27:53;17.30;99.40
5394;DHT22;2720;52.396;10.064;2023-06-04T08:30:20;17.30;98.80
5394;DHT22;2720;52.396;10.064;2023-06-04T08:32:47;17.40;98.00
5394;DHT22;2720;52.396;10.064;2023-06-04T08:35:17;17.40;98.10
5394;DHT22;2720;52.396;10.064;2023-06-04T08:37:44;15.00;97.00
5394;DHT22;2720;52.396;10.064;2023-06-04T08:40:12;17.60;96.80
5394;DHT22;2720;52.396;10.064;2023-06-04T08:42:41;17.70;97.40
5394;DHT22;2720;52.396;10.064;2023-06-04T08:45:11;17.70;97.20
5394;DHT22;2720;52.396;10.064;2023-06-04T08:47:40;17.80;96.30
5394;DHT22;2720;52.396;10.064;2023-06-04T08:50:10;17.80;97.10
5394;DHT22;2720;52.396;10.064;2023-06-04T08:52:40;17.90;97.30
5394;DHT22;2720;52.396;10.064;2023-06-04T08:55:08;18.00;96.80
5394;DHT22;2720;52.396;10.064;2023-06-04T08:57:39;18.10;96.80
5394;DHT22;2720;52.396;10.064;2023-06-04T09:00:07;18.20;96.20
5394;DHT22;2720;52.396;10.064;2023-06-04T09:02:36;18.20;96.30
5394;DHT22;2720;52.396;10.064;2023-06-04T09:05:04;18.30;95.30
5394;DHT22;2720;52.396;10.064;2023-06-04T09:07:35;18.30;94.50
5394;DHT22;2720;52.396;10.064;2023-06-04T09:10:04;18.30;93.80
5394;DHT22;2720;52.396;10.064;2023-06-04T09:12:36;18.40;94.30
5394;DHT22;2720;52.396;10.064;2023-06-04T09:15:03;18.50;93.30
5394;DHT22;2720;52.396;10.064;2023-06-04T09:17:30;18.60;93.80
5394;DHT22;2720;52.396;10.064;2023-06-04T09:19:57;18.60;92.40
5394;DHT22;2720;52.396;10.064;2023-06-04T09:22:32;18.70;93.00
5394;DHT22;2720;52.396;10.064;2023-06-04T09:24:59;18.60;91.90
5394;DHT22;2720;52.396;10.064;2023-06-04T09:27:37;18.70;92.80
5394;DHT22;2720;52.396;10.064;2023-06-04T09:30:06;18.80;91.90
5394;DHT22;2720;52.396;10.064;2023-06-04T09:32:34;18.90;93.50
5394;DHT22;2720;52.396;10.064;2023-06-04T09:35:09;18.90;93.30
5394;DHT22;2720;52.396;10.064;2023-06-04T09:37:37;18.90;91.00
5394;DHT22;2720;52.396;10.064;2023-06-04T09:40:05;18.90;90.70
5394;DHT22;2720;52.396;10.064;2023-06-04T09:42:43;19.00;91.50
5394;DHT22;2720;52.396;10.064;2023-06-04T09:45:10;19.10;91.20
5394;DHT22;2720;52.396;10.064;2023-06-04T09:47:42;19.20;90.70
5394;DHT22;2720;52.396;10.064;2023-06-04T09:50:10;19.30;90.20
5394;DHT22;2720;52.396;10.064;2023-06-04T09:52:37;19.40;89.40
5394;DHT22;2720;52.396;10.064;2023-06-04T09:55:15;19.50;91.20
5394;DHT22;2720;52.396;10.064;2023-06-04T09:57:46;19.50;93.60
5394;DHT22;2720;52.396;10.064;2023-06-04T10:00:17;19.50;90.50
5394;DHT22;2720;52.396;10.064;2023-06-04T10:02:44;19.60;90.30
5394;DHT22;2720;52.396;10.064;2023-06-04T10:05:13;19.80;90.00
5394;DHT22;2720;52.396;10.064;2023-06-04T10:07:43;19.80;88.70
5394;DHT22;2720;52.396;10.064;2023-06-04T10:10:14;19.90;90.60
5394;DHT22;2720;52.396;10.064;2023-06-04T10:12:42;19.80;91.60
5394;DHT22;2720;52.396;10.064;2023-06-04T10:15:12;19.90;90.40
5394;DHT22;2720;52.396;10.064;2023-06-04T10:17:40;20.00;88.80
5394;DHT22;2720;52.396;10.064;2023-06-04T10:20:08;20.00;88.10
5394;DHT22;2720;52.396;10.064;2023-06-04T10:22:36;20.00;86.00
5394;DHT22;2720;52.396;10.064;2023-06-04T10:25:03;20.00;85.60
5394;DHT22;2720;52.396;10.064;2023-06-04T10:27:31;20.00;83.10
5394;DHT22;2720;52.396;10.064;2023-06-04T10:30:01;20.10;85.80
5394;DHT22;2720;52.396;10.064;2023-06-04T10:32:30;20.10;85.90
5394;DHT22;2720;52.396;10.064;2023-06-04T10:34:57;20.20;86.30
5394;DHT22;2720;52.396;10.064;2023-06-04T10:37:25;20.20;86.30
5394;DHT22;2720;52.396;10.064;2023-06-04T10:39:53;20.30;86.00
5394;DHT22;2720;52.396;10.064;2023-06-04T10:42:21;20.30;85.00
5394;DHT22;2720;52.396;10.064;2023-06-04T10:44:49;20.50;86.50
5394;DHT22;2720;52.396;10.064;2023-06-04T10:47:23;20.50;83.70
5394;DHT22;2720;52.396;10.064;2023-06-04T10:49:53;20.60;91.60
5394;DHT22;2720;52.396;10.064;2023-06-04T10:52:21;20.70;91.90
5394;DHT22;2720;52.396;10.064;2023-06-04T10:54:48;21.00;85.20
5394;DHT22;2720;52.396;10.064;2023-06-04T10:57:19;21.10;86.60
5394;DHT22;2720;52.396;10.064;2023-06-04T10:59:55;21.10;84.60
5394;DHT22;2720;52.396;10.064;2023-06-04T11:02:22;21.20;84.40
5394;DHT22;2720;52.396;10.064;2023-06-04T11:05:00;21.20;84.20
5394;DHT22;2720;52.396;10.064;2023-06-04T11:07:41;21.40;91.60
5394;DHT22;2720;52.396;10.064;2023-06-04T11:10:10;21.60;83.10
5394;DHT22;2720;52.396;10.064;2023-06-04T11:12:44;21.80;82.50
5394;DHT22;2720;52.396;10.064;2023-06-04T11:15:11;22.00;80.10
5394;DHT22;2720;52.396;10.064;2023-06-04T11:17:48;22.10;82.10
5394;DHT22;2720;52.396;10.064;2023-06-04T11:20:17;22.40;85.70
5394;DHT22;2720;52.396;10.064;2023-06-04T11:22:51;22.70;88.20
5394;DHT22;2720;52.396;10.064;2023-06-04T11:25:18;23.20;81.40
5394;DHT22;2720;52.396;10.064;2023-06-04T11:27:45;23.50;87.40
5394;DHT22;2720;52.396;10.064;2023-06-04T11:30:13;23.80;79.00
5394;DHT22;2720;52.396;10.064;2023-06-04T11:32:40;23.90;78.20
5394;DHT22;2720;52.396;10.064;2023-06-04T11:35:07;23.90;78.20
5394;DHT22;2720;52.396;10.064;2023-06-04T11:37:38;23.80;77.10
5394;DHT22;2720;52.396;10.064;2023-06-04T11:40:15;24.00;77.00
5394;DHT22;2720;52.396;10.064;2023-06-04T11:42:44;24.10;75.50
5394;DHT22;2720;52.396;10.064;2023-06-04T11:45:12;24.30;77.80
5394;DHT22;2720;52.396;10.064;2023-06-04T11:47:39;24.80;83.20
5394;DHT22;2720;52.396;10.064;2023-06-04T11:50:07;24.90;74.80
5394;DHT22;2720;52.396;10.064;2023-06-04T11:52:35;24.90;74.00
5394;DHT22;2720;52.396;10.064;2023-06-04T11:55:05;24.90;73.30
5394;DHT22;2720;52.396;10.064;2023-06-04T11:57:34;24.90;76.60
5394;DHT22;2720;52.396;10.064;2023-06-04T12:00:02;25.30;73.90
5394;DHT22;2720;52.396;10.064;2023-06-04T12:02:30;25.60;77.50
5394;DHT22;2720;52.396;10.064;2023-06-04T12:04:57;26.10;77.30
5394;DHT22;2720;52.396;10.064;2023-06-04T12:07:24;26.50;73.30
5394;DHT22;2720;52.396;10.064;2023-06-04T12:09:51;26.40;72.60
5394;DHT22;2720;52.396;10.064;2023-06-04T12:12:22;26.00;72.40
5394;DHT22;2720;52.396;10.064;2023-06-04T12:14:57;26.10;73.20
5394;DHT22;2720;52.396;10.064;2023-06-04T12:17:24;26.10;73.50
5394;DHT22;2720;52.396;10.064;2023-06-04T12:19:51;26.30;72.40
5394;DHT22;2720;52.396;10.064;2023-06-04T12:22:19;26.20;70.90
5394;DHT22;2720;52.396;10.064;2023-06-04T12:24:47;26.10;69.50
5394;DHT22;2720;52.396;10.064;2023-06-04T12:27:14;26.30;70.60
5394;DHT22;2720;52.396;10.064;2023-06-04T12:29:43;26.10;68.90
5394;DHT22;2720;52.396;10.064;2023-06-04T12:32:20;25.70;71.20
5394;DHT22;2720;52.396;10.064;2023-06-04T12:34:47;26.10;76.20
5394;DHT22;2720;52.396;10.064;2023-06-04T12:37:14;26.50;70.20
5394;DHT22;2720;52.396;10.064;2023-06-04T12:39:42;27.00;70.30
5394;DHT22;2720;52.396;10.064;2023-06-04T12:42:09;27.30;73.90
5394;DHT22;2720;52.396;10.064;2023-06-04T12:44:36;27.80;75.40
5394;DHT22;2720;52.396;10.064;2023-06-04T12:47:05;28.20;73.30
5394;DHT22;2720;52.396;10.064;2023-06-04T12:49:32;28.40;74.30
5394;DHT22;2720;52.396;10.064;2023-06-04T12:51:59;28.40;72.90
5394;DHT22;2720;52.396;10.064;2023-06-04T12:54:26;28.10;68.80
5394;DHT22;2720;52.396;10.064;2023-06-04T12:56:53;27.80;68.90
5394;DHT22;2720;52.396;10.064;2023-06-04T12:59:21;27.40;69.10
5394;DHT22;2720;52.396;10.064;2023-06-04T13:01:48;27.40;67.90
5394;DHT22;2720;52.396;10.064;2023-06-04T13:04:17;27.10;68.10
5394;DHT22;2720;52.396;10.064;2023-06-04T13:06:44;27.10;70.30
5394;DHT22;2720;52.396;10.064;2023-06-04T13:09:13;27.20;68.20
5394;DHT22;2720;52.396;10.064;2023-06-04T13:11:41;27.10;67.90
5394;DHT22;2720;52.396;10.064;2023-06-04T13:14:09;27.30;68.80
5394;DHT22;2720;52.396;10.064;2023-06-04T13:16:37;27.60;67.20
5394;DHT22;2720;52.396;10.064;2023-06-04T13:19:05;27.50;67.30
5394;DHT22;2720;52.396;10.064;2023-06-04T13:21:34;27.80;67.60
5394;DHT22;2720;52.396;10.064;2023-06-04T13:24:02;27.60;66.10
5394;DHT22;2720;52.396;10.064;2023-06-04T13:26:29;27.80;80.10
5394;DHT22;2720;52.396;10.064;2023-06-04T13:28:55;28.00;66.20
5394;DHT22;2720;52.396;10.064;2023-06-04T13:31:22;27.50;65.80
5394;DHT22;2720;52.396;10.064;2023-06-04T13:33:49;27.20;65.60
5394;DHT22;2720;52.396;10.064;2023-06-04T13:36:16;27.10;68.40
5394;DHT22;2720;52.396;10.064;2023-06-04T13:38:45;27.50;71.60
5394;DHT22;2720;52.396;10.064;2023-06-04T13:41:12;27.70;66.10
5394;DHT22;2720;52.396;10.064;2023-06-04T13:43:39;27.80;68.50
5394;DHT22;2720;52.396;10.064;2023-06-04T13:46:06;27.80;64.50
5394;DHT22;2720;52.396;10.064;2023-06-04T13:48:33;27.80;66.30
5394;DHT22;2720;52.396;10.064;2023-06-04T13:51:00;28.30;75.90
5394;DHT22;2720;52.396;10.064;2023-06-04T13:53:27;28.70;70.50
5394;DHT22;2720;52.396;10.064;2023-06-04T13:55:55;28.90;73.50
5394;DHT22;2720;52.396;10.064;2023-06-04T13:58:24;29.20;67.50
5394;DHT22;2720;52.396;10.064;2023-06-04T14:00:51;29.40;64.10
5394;DHT22;2720;52.396;10.064;2023-06-04T14:03:18;29.10;65.30
5394;DHT22;2720;52.396;10.064;2023-06-04T14:05:45;28.90;64.20
5394;DHT22;2720;52.396;10.064;2023-06-04T14:08:12;28.70;69.80
5394;DHT22;2720;52.396;10.064;2023-06-04T14:10:39;28.30;64.60
5394;DHT22;2720;52.396;10.064;2023-06-04T14:13:09;27.90;65.00
5394;DHT22;2720;52.396;10.064;2023-06-04T14:15:37;28.00;64.40
5394;DHT22;2720;52.396;10.064;2023-06-04T14:18:04;28.10;68.80
5394;DHT22;2720;52.396;10.064;2023-06-04T14:20:33;28.10;65.00
5394;DHT22;2720;52.396;10.064;2023-06-04T14:23:00;28.10;63.80
5394;DHT22;2720;52.396;10.064;2023-06-04T14:25:27;28.20;65.70
5394;DHT22;2720;52.396;10.064;2023-06-04T14:27:54;28.50;63.80
5394;DHT22;2720;52.396;10.064;2023-06-04T14:30:22;28.30;62.50
5394;DHT22;2720;52.396;10.064;2023-06-04T14:32:49;28.60;65.10
5394;DHT22;2720;52.396;10.064;2023-06-04T14:35:16;28.60;63.90
5394;DHT22;2720;52.396;10.064;2023-06-04T14:37:43;28.50;63.80
5394;DHT22;2720;52.396;10.064;2023-06-04T14:40:10;28.60;66.00
5394;DHT22;2720;52.396;10.064;2023-06-04T14:42:37;28.30;63.60
5394;DHT22;2720;52.396;10.064;2023-06-04T14:45:05;28.00;65.60
5394;DHT22;2720;52.396;10.064;2023-06-04T14:47:34;28.00;64.40
5394;DHT22;2720;52.396;10.064;2023-06-04T14:50:01;27.90;64.30
5394;DHT22;2720;52.396;10.064;2023-06-04T14:52:27;27.80;65.30
5394;DHT22;2720;52.396;10.064;2023-06-04T14:54:55;28.10;67.00
5394;DHT22;2720;52.396;10.064;2023-06-04T14:57:22;28.30;64.40
5394;DHT22;2720;52.396;10.064;2023-06-04T14:59:49;28.40;62.80
5394;DHT22;2720;52.396;10.064;2023-06-04T15:02:16;28.40;63.00
5394;DHT22;2720;52.396;10.064;2023-06-04T15:04:46;28.50;63.90
5394;DHT22;2720;52.396;10.064;2023-06-04T15:07:13;28.30;63.80
5394;DHT22;2720;52.396;10.064;2023-06-04T15:09:40;28.40;65.20
5394;DHT22;2720;52.396;10.064;2023-06-04T15:12:07;28.70;65.00
5394;DHT22;2720;52.396;10.064;2023-06-04T15:14:34;28.60;63.10
5394;DHT22;2720;52.396;10.064;2023-06-04T15:17:01;28.40;62.90
5394;DHT22;2720;52.396;10.064;2023-06-04T15:19:29;27.90;63.30
5394;DHT22;2720;52.396;10.064;2023-06-04T15:21:57;28.00;63.90
5394;DHT22;2720;52.396;10.064;2023-06-04T15:24:24;28.10;63.20
5394;DHT22;2720;52.396;10.064;2023-06-04T15:26:51;28.20;64.70
5394;DHT22;2720;52.396;10.064;2023-06-04T15:29:18;28.30;64.70
5394;DHT22;2720;52.396;10.064;2023-06-04T15:31:45;28.50;66.00
5394;DHT22;2720;52.396;10.064;2023-06-04T15:34:12;28.70;65.00
5394;DHT22;2720;52.396;10.064;2023-06-04T15:36:39;28.50;64.80
5394;DHT22;2720;52.396;10.064;2023-06-04T15:39:08;28.10;64.30
5394;DHT22;2720;52.396;10.064;2023-06-04T15:41:35;28.00;64.40
5394;DHT22;2720;52.396;10.064;2023-06-04T15:44:02;28.10;65.60
5394;DHT22;2720;52.396;10.064;2023-06-04T15:46:29;28.30;65.10
5394;DHT22;2720;52.396;10.064;2023-06-04T15:48:56;28.20;66.20
5394;DHT22;2720;52.396;10.064;2023-06-04T15:51:23;27.80;66.40
5394;DHT22;2720;52.396;10.064;2023-06-04T15:53:50;27.90;66.30
5394;DHT22;2720;52.396;10.064;2023-06-04T15:56:18;27.90;65.00